createdAt,value
2022-12-14T00:01:36.113Z,17.70
2022-12-14T00:04:02.730Z,15.37
2022-12-14T00:06:31.872Z,27.20
2022-12-14T00:09:00.953Z,21.33
2022-12-14T00:11:28.604Z,17.87
2022-12-14T00:13:58.018Z,16.40
2022-12-14T00:16:26.761Z,15.03
2022-12-14T00:18:55.626Z,14.57
2022-12-14T00:21:23.237Z,16.77
2022-12-14T00:23:51.221Z,17.40
2022-12-14T00:26:21.091Z,18.97
2022-12-14T00:28:49.517Z,14.77
2022-12-14T00:31:16.677Z,17.50
2022-12-14T00:33:44.202Z,18.77
2022-12-14T00:36:12.357Z,16.33
2022-12-14T00:38:40.040Z,19.90
2022-12-14T00:41:07.402Z,16.43
2022-12-14T00:43:34.239Z,22.23
2022-12-14T00:46:01.134Z,16.17
2022-12-14T00:48:28.785Z,17.17
2022-12-14T00:50:56.683Z,16.30
2022-12-14T00:53:24.626Z,17.03
2022-12-14T00:55:52.208Z,16.37
2022-12-14T00:58:20.815Z,14.87
2022-12-14T01:00:57.754Z,16.47
2022-12-14T01:03:24.675Z,17.10
2022-12-14T01:05:51.508Z,17.90
2022-12-14T01:08:18.112Z,16.60
2022-12-14T01:10:44.888Z,18.23
2022-12-14T01:13:11.820Z,14.37
2022-12-14T01:15:38.563Z,19.70
2022-12-14T01:18:05.596Z,14.57
2022-12-14T01:20:32.292Z,12.97
2022-12-14T01:22:58.918Z,15.40
2022-12-14T01:25:25.754Z,16.57
2022-12-14T01:27:53.258Z,14.80
2022-12-14T01:30:21.129Z,17.83
2022-12-14T01:32:47.729Z,16.87
2022-12-14T01:35:14.874Z,15.63
2022-12-14T01:37:41.608Z,20.03
2022-12-14T01:40:09.125Z,19.40
2022-12-14T01:42:37.023Z,15.03
2022-12-14T01:45:05.406Z,17.10
2022-12-14T01:47:43.137Z,14.70
2022-12-14T01:50:13.271Z,26.70
2022-12-14T01:52:46.957Z,15.40
2022-12-14T01:55:27.542Z,15.73
2022-12-14T01:58:16.372Z,17.67
2022-12-14T02:00:44.703Z,16.47
2022-12-14T02:03:16.928Z,21.63
2022-12-14T02:05:50.735Z,12.80
2022-12-14T02:08:18.599Z,21.83
2022-12-14T02:10:46.290Z,16.33
2022-12-14T02:13:34.261Z,17.13
2022-12-14T02:16:01.181Z,10.07
2022-12-14T02:18:31.035Z,16.90
2022-12-14T02:21:19.199Z,12.20
2022-12-14T02:24:07.993Z,14.17
2022-12-14T02:26:43.810Z,24.50
2022-12-14T02:29:37.526Z,14.53
2022-12-14T02:32:18.952Z,16.90
2022-12-14T02:35:16.191Z,19.80
2022-12-14T02:37:49.013Z,14.17
2022-12-14T02:40:28.081Z,14.53
2022-12-14T02:42:54.709Z,12.97
2022-12-14T02:45:35.595Z,13.57
2022-12-14T02:48:09.186Z,15.73
2022-12-14T02:51:06.404Z,18.67
2022-12-14T02:53:58.972Z,21.63
2022-12-14T02:56:45.165Z,16.70
2022-12-14T02:59:12.092Z,17.63
2022-12-14T03:01:40.990Z,14.97
2022-12-14T03:04:08.356Z,13.37
2022-12-14T03:06:35.228Z,15.37
2022-12-14T03:09:17.868Z,17.80
2022-12-14T03:11:56.054Z,14.80
2022-12-14T03:14:31.487Z,17.43
2022-12-14T03:17:05.228Z,15.00
2022-12-14T03:19:40.564Z,19.13
2022-12-14T03:22:31.828Z,14.00
2022-12-14T03:25:03.097Z,14.93
2022-12-14T03:27:34.719Z,16.63
2022-12-14T03:30:10.048Z,15.97
2022-12-14T03:32:42.727Z,17.97
2022-12-14T03:35:23.467Z,17.67
2022-12-14T03:37:54.014Z,14.97
2022-12-14T03:40:29.412Z,16.93
2022-12-14T03:43:01.107Z,19.27
2022-12-14T03:45:43.833Z,17.67
2022-12-14T03:48:52.608Z,17.83
2022-12-14T03:51:41.342Z,16.13
2022-12-14T03:54:24.252Z,14.90
2022-12-14T03:57:04.529Z,15.63
2022-12-14T03:59:58.164Z,17.23
2022-12-14T04:02:47.311Z,14.30
2022-12-14T04:05:48.542Z,13.30
2022-12-14T04:08:31.964Z,19.23
2022-12-14T04:11:21.600Z,18.47
2022-12-14T04:14:16.253Z,16.90
2022-12-14T04:17:04.289Z,17.03
2022-12-14T04:19:41.296Z,12.70
2022-12-14T04:22:13.048Z,21.10
2022-12-14T04:25:20.077Z,16.17
2022-12-14T04:27:58.775Z,16.20
2022-12-14T04:30:32.210Z,17.00
2022-12-14T04:33:31.155Z,16.70
2022-12-14T04:36:03.412Z,20.00
2022-12-14T04:38:34.800Z,18.53
2022-12-14T04:41:06.480Z,14.70
2022-12-14T04:43:41.025Z,15.93
2022-12-14T04:46:12.628Z,15.43
2022-12-14T04:48:50.828Z,16.27
2022-12-14T04:51:35.708Z,14.17
2022-12-14T04:54:27.967Z,18.63
2022-12-14T04:57:19.141Z,17.57
2022-12-14T04:59:47.075Z,18.83
2022-12-14T05:02:19.888Z,15.50
2022-12-14T05:05:05.032Z,21.07
2022-12-14T05:07:31.588Z,17.47
2022-12-14T05:10:10.113Z,19.73
2022-12-14T05:12:46.898Z,20.00
2022-12-14T05:15:18.691Z,19.20
2022-12-14T05:17:45.436Z,16.03
2022-12-14T05:20:18.091Z,18.73
2022-12-14T05:22:44.991Z,16.90
2022-12-14T05:25:11.641Z,13.70
2022-12-14T05:27:38.554Z,17.10
2022-12-14T05:30:06.676Z,13.60
2022-12-14T05:32:33.794Z,23.50
2022-12-14T05:35:00.528Z,17.73
2022-12-14T05:37:27.173Z,18.33
2022-12-14T05:39:54.612Z,19.20
2022-12-14T05:42:21.517Z,16.03
2022-12-14T05:44:48.099Z,20.40
2022-12-14T05:47:14.767Z,19.90
2022-12-14T05:49:41.517Z,17.67
2022-12-14T05:52:08.089Z,18.80
2022-12-14T05:54:34.697Z,19.87
2022-12-14T05:57:01.442Z,18.80
2022-12-14T05:59:28.067Z,14.17
2022-12-14T06:01:54.664Z,18.47
2022-12-14T06:04:21.374Z,19.20
2022-12-14T06:06:48.090Z,19.10
2022-12-14T06:09:16.072Z,19.83
2022-12-14T06:11:43.979Z,17.63
2022-12-14T06:14:11.681Z,22.13
2022-12-14T06:16:42.850Z,21.43
2022-12-14T06:19:11.805Z,20.43
2022-12-14T06:21:40.553Z,21.07
2022-12-14T06:24:08.364Z,18.13
2022-12-14T06:26:42.181Z,21.40
2022-12-14T06:29:18.156Z,18.87
2022-12-14T06:31:45.155Z,15.17
2022-12-14T06:34:16.448Z,14.80
2022-12-14T06:36:43.285Z,22.60
2022-12-14T06:39:15.779Z,21.10
2022-12-14T06:41:43.529Z,19.87
2022-12-14T06:44:13.044Z,20.43
2022-12-14T06:46:40.279Z,19.40
2022-12-14T06:49:07.706Z,20.13
2022-12-14T06:51:41.204Z,22.17
2022-12-14T06:54:09.521Z,21.53
2022-12-14T06:56:37.052Z,25.27
2022-12-14T06:59:05.318Z,21.80
2022-12-14T07:01:32.100Z,26.07
2022-12-14T07:03:59.687Z,19.80
2022-12-14T07:06:28.655Z,18.63
2022-12-14T07:08:57.020Z,25.23
2022-12-14T07:11:24.795Z,23.57
2022-12-14T07:13:51.754Z,25.20
2022-12-14T07:16:23.224Z,19.93
2022-12-14T07:18:50.150Z,19.67
2022-12-14T07:21:18.449Z,18.40
2022-12-14T07:23:46.928Z,19.10
2022-12-14T07:26:17.091Z,24.57
2022-12-14T07:28:44.521Z,21.90
2022-12-14T07:31:20.199Z,22.50
2022-12-14T07:33:47.332Z,30.13
2022-12-14T07:36:16.589Z,25.00
2022-12-14T07:38:44.956Z,28.13
2022-12-14T07:41:15.525Z,23.77
2022-12-14T07:43:46.248Z,25.30
2022-12-14T07:46:19.478Z,25.10
2022-12-14T07:48:48.416Z,20.80
2022-12-14T07:51:17.931Z,28.13
2022-12-14T07:53:44.741Z,26.93
2022-12-14T07:56:14.798Z,21.87
2022-12-14T07:58:41.739Z,21.43
2022-12-14T08:01:11.483Z,21.00
2022-12-14T08:03:41.847Z,23.30
2022-12-14T08:06:10.019Z,21.90
2022-12-14T08:08:37.001Z,24.70
2022-12-14T08:11:04.545Z,25.83
2022-12-14T08:13:32.246Z,21.93
2022-12-14T08:16:06.202Z,23.07
2022-12-14T08:18:33.313Z,21.07
2022-12-14T08:21:01.223Z,25.67
2022-12-14T08:23:28.219Z,25.70
2022-12-14T08:25:56.425Z,23.80
2022-12-14T08:28:24.046Z,19.13
2022-12-14T08:30:51.603Z,22.57
2022-12-14T08:33:18.901Z,26.93
2022-12-14T08:35:45.787Z,22.10
2022-12-14T08:38:12.704Z,24.87
2022-12-14T08:40:39.658Z,15.97
2022-12-14T08:43:07.140Z,22.20
2022-12-14T08:45:33.949Z,24.27
2022-12-14T08:48:01.589Z,27.37
2022-12-14T08:50:31.555Z,34.70
2022-12-14T08:52:58.161Z,20.67
2022-12-14T08:55:29.138Z,27.23
2022-12-14T08:57:58.221Z,26.10
2022-12-14T09:00:24.865Z,25.07
2022-12-14T09:02:51.940Z,23.87
2022-12-14T09:05:18.653Z,24.33
2022-12-14T09:07:45.871Z,25.80
2022-12-14T09:10:12.823Z,23.33
2022-12-14T09:12:39.983Z,25.53
2022-12-14T09:15:07.838Z,28.40
2022-12-14T09:17:34.597Z,25.37
2022-12-14T09:20:01.210Z,22.50
2022-12-14T09:22:29.377Z,26.03
2022-12-14T09:24:56.043Z,26.83
2022-12-14T09:27:22.748Z,12.37
2022-12-14T09:29:49.928Z,27.63
2022-12-14T09:32:16.715Z,24.10
2022-12-14T09:34:43.351Z,30.47
2022-12-14T09:37:10.145Z,28.33
2022-12-14T09:39:36.893Z,18.20
2022-12-14T09:42:11.874Z,31.30
2022-12-14T09:44:47.645Z,32.40
2022-12-14T09:47:29.358Z,27.33
2022-12-14T09:50:02.155Z,22.70
2022-12-14T09:52:44.465Z,28.47
2022-12-14T09:55:52.682Z,24.97
2022-12-14T09:58:25.634Z,26.17
2022-12-14T10:00:59.458Z,25.53
2022-12-14T10:03:53.810Z,26.77
2022-12-14T10:06:29.241Z,21.07
2022-12-14T10:09:04.079Z,29.83
2022-12-14T10:11:46.639Z,31.00
2022-12-14T10:14:28.461Z,23.20
2022-12-14T10:17:01.053Z,21.40
2022-12-14T10:19:38.478Z,25.20
2022-12-14T10:22:10.098Z,27.57
2022-12-14T10:24:44.980Z,25.20
2022-12-14T10:27:22.788Z,27.60
2022-12-14T10:30:16.804Z,22.97
2022-12-14T10:33:13.731Z,29.97
2022-12-14T10:35:51.358Z,28.37
2022-12-14T10:38:35.742Z,28.87
2022-12-14T10:41:21.870Z,28.07
2022-12-14T10:44:19.739Z,33.83
2022-12-14T10:47:04.946Z,29.53
2022-12-14T10:49:43.613Z,23.00
2022-12-14T10:52:18.799Z,28.47
2022-12-14T10:54:56.501Z,21.40
2022-12-14T10:57:26.490Z,25.13
2022-12-14T11:00:07.861Z,26.40
2022-12-14T11:02:41.798Z,25.47
2022-12-14T11:05:36.387Z,25.70
2022-12-14T11:08:07.258Z,22.20
2022-12-14T11:10:36.251Z,27.00
2022-12-14T11:13:13.038Z,31.83
2022-12-14T11:15:45.370Z,34.80
2022-12-14T11:18:11.987Z,28.93
2022-12-14T11:20:51.180Z,33.13
2022-12-14T11:23:21.163Z,32.20
2022-12-14T11:25:50.950Z,32.30
2022-12-14T11:28:39.709Z,32.90
2022-12-14T11:31:24.026Z,29.63
2022-12-14T11:33:55.799Z,26.77
2022-12-14T11:36:40.440Z,27.17
2022-12-14T11:39:20.424Z,30.00
2022-12-14T11:41:59.179Z,30.33
2022-12-14T11:44:28.699Z,32.40
2022-12-14T11:47:04.930Z,33.17
2022-12-14T11:49:37.699Z,32.83
2022-12-14T11:52:04.340Z,28.50
2022-12-14T11:54:36.550Z,33.67
2022-12-14T11:57:07.418Z,30.20
2022-12-14T11:59:53.475Z,34.87
2022-12-14T12:02:23.287Z,28.87
2022-12-14T12:04:57.447Z,34.17
2022-12-14T12:07:32.113Z,28.10
2022-12-14T12:10:21.997Z,34.90
2022-12-14T12:12:54.679Z,26.90
2022-12-14T12:15:28.235Z,35.60
2022-12-14T12:18:06.140Z,32.47
2022-12-14T12:20:43.035Z,31.13
2022-12-14T12:23:19.923Z,31.47
2022-12-14T12:25:50.086Z,27.53
2022-12-14T12:28:30.162Z,27.70
2022-12-14T12:31:07.426Z,29.80
2022-12-14T12:33:49.487Z,31.63
2022-12-14T12:36:24.309Z,34.17
2022-12-14T12:39:06.897Z,26.73
2022-12-14T12:41:47.434Z,28.90
2022-12-14T12:44:26.051Z,25.87
2022-12-14T12:47:24.820Z,27.40
2022-12-14T12:49:51.987Z,29.70
2022-12-14T12:52:44.966Z,30.83
2022-12-14T12:55:17.291Z,36.93
2022-12-14T12:57:49.155Z,34.57
2022-12-14T13:00:19.609Z,40.53
2022-12-14T13:02:52.805Z,33.13
2022-12-14T13:05:49.805Z,30.53
2022-12-14T13:08:31.954Z,28.17
2022-12-14T13:13:52.700Z,39.17
2022-12-14T13:16:27.642Z,37.57
2022-12-14T13:19:19.043Z,35.23
2022-12-14T13:21:52.117Z,36.17
2022-12-14T13:24:21.571Z,32.00
2022-12-14T13:27:35.318Z,29.00
2022-12-14T13:30:33.699Z,33.23
2022-12-14T13:33:29.206Z,30.03
2022-12-14T13:36:20.619Z,31.30
2022-12-14T13:38:55.983Z,34.00
2022-12-14T13:41:22.676Z,35.67
2022-12-14T13:44:01.609Z,35.10
2022-12-14T13:46:30.389Z,36.87
2022-12-14T13:49:03.163Z,41.20
2022-12-14T13:51:34.190Z,35.00
2022-12-14T13:54:03.680Z,35.10
2022-12-14T13:56:34.436Z,32.93
2022-12-14T13:59:04.580Z,29.87
2022-12-14T14:01:40.615Z,36.90
2022-12-14T14:04:10.455Z,33.43
2022-12-14T14:06:41.547Z,34.73
2022-12-14T14:09:26.554Z,31.83
2022-12-14T14:12:26.697Z,43.83
2022-12-14T14:15:22.676Z,34.13
2022-12-14T14:17:54.825Z,36.23
2022-12-14T14:20:38.801Z,39.70
2022-12-14T14:23:14.684Z,39.27
2022-12-14T14:26:19.214Z,35.67
2022-12-14T14:28:49.458Z,35.27
2022-12-14T14:31:16.321Z,40.30
2022-12-14T14:33:55.121Z,33.40
2022-12-14T14:36:33.047Z,37.47
2022-12-14T14:39:31.241Z,44.50
2022-12-14T14:41:54.855Z,39.77
2022-12-14T14:44:30.871Z,38.13
2022-12-14T14:46:57.756Z,33.17
2022-12-14T14:49:24.379Z,34.43
2022-12-14T14:51:53.022Z,32.20
2022-12-14T14:57:33.451Z,37.03
2022-12-14T15:00:12.456Z,37.73
2022-12-14T15:02:41.764Z,44.30
2022-12-14T15:05:41.518Z,38.10
2022-12-14T15:08:05.383Z,39.97
2022-12-14T15:10:42.082Z,45.53
2022-12-14T15:13:19.536Z,39.60
2022-12-14T15:15:49.742Z,43.37
2022-12-14T15:18:23.759Z,34.70
2022-12-14T15:21:11.620Z,33.07
2022-12-14T15:23:49.976Z,37.87
2022-12-14T15:26:25.743Z,36.73
2022-12-14T15:28:58.558Z,43.77
2022-12-14T15:31:32.355Z,32.70
2022-12-14T15:34:00.924Z,35.60
2022-12-14T15:36:31.996Z,37.37
2022-12-14T15:38:59.054Z,34.80
2022-12-14T15:41:32.968Z,35.77
2022-12-14T15:44:00.924Z,41.47
2022-12-14T15:46:35.739Z,37.13
2022-12-14T15:49:05.340Z,37.47
2022-12-14T15:51:41.097Z,37.87
2022-12-14T15:54:16.116Z,38.23
2022-12-14T15:56:49.019Z,43.50
2022-12-14T15:59:16.854Z,41.73
2022-12-14T16:01:54.364Z,38.53
2022-12-14T16:04:27.703Z,46.13
2022-12-14T16:07:13.469Z,39.90
2022-12-14T16:09:44.191Z,44.10
2022-12-14T16:12:19.626Z,43.27
2022-12-14T16:14:54.574Z,37.60
2022-12-14T16:17:26.593Z,40.57
2022-12-14T16:20:02.557Z,47.47
2022-12-14T16:22:31.039Z,37.07
2022-12-14T16:25:02.638Z,41.93
2022-12-14T16:27:31.114Z,39.87
2022-12-14T16:30:26.486Z,62.93
2022-12-14T16:33:11.152Z,47.27
2022-12-14T16:35:38.609Z,40.40
2022-12-14T16:38:08.447Z,46.23
2022-12-14T16:40:43.153Z,42.97
2022-12-14T16:43:33.069Z,48.33
2022-12-14T16:46:00.241Z,55.20
2022-12-14T16:48:28.871Z,40.90
2022-12-14T16:51:38.009Z,41.97
2022-12-14T16:54:22.406Z,44.53
2022-12-14T16:56:54.423Z,43.47
2022-12-14T16:59:23.058Z,48.00
2022-12-14T17:01:53.175Z,42.53
2022-12-14T17:04:20.934Z,48.63
2022-12-14T17:06:52.687Z,48.23
2022-12-14T17:09:20.430Z,45.53
2022-12-14T17:11:48.892Z,44.47
2022-12-14T17:14:17.839Z,44.60
2022-12-14T17:16:46.862Z,41.97
2022-12-14T17:19:26.774Z,41.00
2022-12-14T17:21:53.499Z,40.70
2022-12-14T17:24:22.256Z,36.00
2022-12-14T17:26:49.906Z,38.47
2022-12-14T17:29:27.478Z,37.10
2022-12-14T17:31:57.651Z,47.43
2022-12-14T17:34:24.983Z,47.83
2022-12-14T17:36:51.624Z,45.80
2022-12-14T17:39:18.344Z,56.13
2022-12-14T17:41:45.865Z,53.70
2022-12-14T17:44:22.386Z,90.40
2022-12-14T17:46:52.331Z,58.03
2022-12-14T17:49:33.953Z,43.87
2022-12-14T17:52:04.432Z,40.73
2022-12-14T17:54:32.215Z,38.27
2022-12-14T17:56:59.324Z,38.50
2022-12-14T17:59:25.982Z,48.00
2022-12-14T18:01:52.723Z,38.10
2022-12-14T18:04:19.588Z,46.33
2022-12-14T18:06:46.309Z,44.33
2022-12-14T18:09:13.011Z,46.33
2022-12-14T18:11:54.481Z,41.50
2022-12-14T18:14:26.166Z,48.20
2022-12-14T18:16:53.745Z,50.87
2022-12-14T18:19:20.404Z,45.70
2022-12-14T18:21:47.038Z,43.00
2022-12-14T18:24:17.402Z,37.33
2022-12-14T18:26:46.894Z,43.97
2022-12-14T18:29:14.796Z,43.63
2022-12-14T18:31:41.686Z,47.17
2022-12-14T18:34:10.906Z,44.17
2022-12-14T18:36:37.631Z,38.50
2022-12-14T18:39:04.615Z,47.10
2022-12-14T18:41:31.407Z,45.13
2022-12-14T18:43:58.356Z,46.83
2022-12-14T18:46:25.167Z,40.13
2022-12-14T18:48:51.870Z,43.20
2022-12-14T18:51:26.876Z,42.90
2022-12-14T18:53:55.440Z,47.03
2022-12-14T18:56:24.049Z,42.60
2022-12-14T18:58:51.812Z,40.70
2022-12-14T19:01:22.064Z,49.77
2022-12-14T19:03:48.999Z,50.00
2022-12-14T19:09:05.867Z,39.10
2022-12-14T19:11:35.821Z,41.13
2022-12-14T19:14:02.599Z,42.10
2022-12-14T19:16:29.540Z,33.83
2022-12-14T19:18:56.754Z,42.37
2022-12-14T19:21:25.464Z,44.07
2022-12-14T19:23:52.138Z,37.93
2022-12-14T19:26:18.852Z,47.27
2022-12-14T19:28:45.610Z,43.47
2022-12-14T19:31:12.885Z,50.37
2022-12-14T19:33:39.711Z,42.83
2022-12-14T19:36:07.680Z,42.03
2022-12-14T19:38:35.472Z,38.33
2022-12-14T19:41:08.035Z,39.30
2022-12-14T19:43:35.446Z,52.10
2022-12-14T19:46:10.838Z,46.63
2022-12-14T19:48:38.176Z,43.10
2022-12-14T19:51:11.391Z,45.43
2022-12-14T19:53:39.845Z,40.80
2022-12-14T19:56:06.877Z,37.87
2022-12-14T19:58:33.539Z,46.47
2022-12-14T20:01:00.219Z,38.80
2022-12-14T20:03:27.817Z,35.80
2022-12-14T20:05:58.754Z,45.40
2022-12-14T20:08:27.063Z,46.43
2022-12-14T20:10:54.043Z,47.07
2022-12-14T20:13:23.083Z,38.03
2022-12-14T20:15:58.154Z,36.77
2022-12-14T20:18:26.244Z,41.03
2022-12-14T20:20:53.202Z,42.43
2022-12-14T20:23:21.964Z,39.70
2022-12-14T20:25:48.897Z,40.53
2022-12-14T20:28:15.568Z,41.17
2022-12-14T20:30:44.671Z,40.03
2022-12-14T20:33:11.597Z,45.57
2022-12-14T20:35:38.502Z,41.90
2022-12-14T20:38:05.133Z,43.67
2022-12-14T20:40:37.975Z,43.90
2022-12-14T20:43:06.375Z,45.47
2022-12-14T20:45:38.126Z,39.40
2022-12-14T20:48:05.495Z,38.90
2022-12-14T20:50:32.373Z,43.10
2022-12-14T20:52:58.965Z,41.43
2022-12-14T20:55:25.591Z,43.03
2022-12-14T20:57:52.423Z,38.43
2022-12-14T21:00:19.192Z,37.37
2022-12-14T21:02:45.989Z,46.23
2022-12-14T21:05:12.703Z,42.87
2022-12-14T21:07:39.371Z,41.43
2022-12-14T21:10:07.821Z,38.47
2022-12-14T21:12:34.971Z,48.13
2022-12-14T21:15:05.375Z,42.30
2022-12-14T21:17:32.026Z,45.53
2022-12-14T21:19:58.770Z,35.53
2022-12-14T21:22:27.597Z,35.20
2022-12-14T21:25:04.386Z,38.40
2022-12-14T21:27:33.158Z,38.23
2022-12-14T21:30:00.608Z,39.03
2022-12-14T21:32:27.547Z,43.70
2022-12-14T21:34:54.137Z,46.00
2022-12-14T21:37:20.962Z,48.73
2022-12-14T21:39:53.973Z,42.70
2022-12-14T21:42:23.791Z,42.93
2022-12-14T21:44:51.569Z,39.90
2022-12-14T21:47:21.021Z,60.80
2022-12-14T21:49:48.280Z,44.93
2022-12-14T21:52:18.056Z,42.67
2022-12-14T21:54:44.955Z,40.07
2022-12-14T21:57:34.539Z,45.87
2022-12-14T22:00:01.334Z,43.80
2022-12-14T22:02:28.599Z,41.63
2022-12-14T22:04:58.287Z,42.83
2022-12-14T22:07:29.844Z,40.67
2022-12-14T22:09:56.497Z,45.00
2022-12-14T22:12:23.105Z,47.80
2022-12-14T22:14:50.134Z,44.47
2022-12-14T22:17:17.151Z,40.53
2022-12-14T22:19:43.734Z,47.87
2022-12-14T22:22:15.527Z,46.70
2022-12-14T22:24:42.593Z,42.27
2022-12-14T22:27:11.337Z,42.30
2022-12-14T22:29:37.971Z,46.50
2022-12-14T22:32:05.015Z,44.60
2022-12-14T22:34:31.705Z,43.63
2022-12-14T22:36:58.317Z,39.53
2022-12-14T22:39:24.947Z,38.77
2022-12-14T22:41:51.586Z,40.30
2022-12-14T22:44:18.237Z,43.30
2022-12-14T22:46:45.058Z,35.57
2022-12-14T22:49:16.762Z,39.37
2022-12-14T22:51:43.725Z,38.53
2022-12-14T22:54:32.658Z,33.03
2022-12-14T22:57:36.338Z,41.63
2022-12-14T23:00:07.730Z,36.53
2022-12-14T23:02:34.795Z,52.03
2022-12-14T23:05:01.587Z,40.70
2022-12-14T23:07:28.188Z,48.37
2022-12-14T23:10:13.315Z,42.90
2022-12-14T23:12:59.172Z,35.90
2022-12-14T23:15:44.438Z,38.90
2022-12-14T23:18:29.490Z,43.53
2022-12-14T23:21:15.486Z,44.00
2022-12-14T23:24:02.887Z,38.67
2022-12-14T23:26:49.157Z,42.33
2022-12-14T23:29:34.483Z,44.93
2022-12-14T23:32:19.758Z,38.73
2022-12-14T23:35:05.029Z,40.47
2022-12-14T23:37:50.315Z,46.80
2022-12-14T23:40:35.679Z,45.50
2022-12-14T23:43:32.376Z,44.50
2022-12-14T23:46:18.139Z,38.27
2022-12-14T23:49:04.025Z,39.97
2022-12-14T23:51:49.274Z,50.67
2022-12-14T23:54:34.970Z,40.67
2022-12-14T23:57:24.962Z,41.40
